Tordesillas, Spain
Current Conditions -  °F | °C
As of 9:30 PM on Thursday 27 Nov 2014 (Local Time) from LEVD Reporting Station
Light Rain Light Rain  
Wind Chill: 40°   Ceiling: 4200
Heat Index: 46°   Visibility: 6mi
Dew Point: 43°   Wind: 16mph
Humidity: 87%   Direction: 160°SSE
Pressure: 29.23"   Gusts: 29mph
Location:  41.5°N, 5°W
Report Text: LEVD 272030Z 16014G25KT 9999 -RA FEW025 SCT036 BKN042 08/06 Q0990
Loading
Personal Weather Stations






























Interactive Weather Map New forecast layout! Learn more

10-Day Weather Forecast

Advertisements
Track Severe Weather on mobile